Weather History for KJYR - January, 2014

Change the Weather History Date:

Tuesday, January 14, 2014

  Actual Average Record
Temperature  
Mean Temperature 34 °F -  
Max Temperature 46 °F 34 °F 64 °F (1987)
Min Temperature 19 °F 12 °F -12 °F (1972)
Degree Days  
Heating Degree Days 30    
Moisture  
Dew Point 14 °F    
Average Humidity 46    
Maximum Humidity 70    
Minimum Humidity 22    
Precipitation  
Precipitation 0.01 in - - ()
Sea Level Pressure  
Sea Level Pressure 30.06 in    
Wind  
Wind Speed 21 mph (NW)    
Max Wind Speed 38 mph    
Max Gust Speed 48 mph    
Visibility 10 miles    
Events Thunderstorm    
Averages and records for this station are not official NWS values.
T = Trace of Precipitation, MM = Missing Value Source: NWS Daily Summary

Daily Weather History Graph

Daily Weather History Graph

Search for Another Location

Airport or City:

Trip Planner

Search our weather history database for the weather conditions in past years. The results will help you decide how hot, cold, wet, or windy it might be!

Date:

Astronomy

Jan. 14, 2014 Rise Set
Actual Time 7:53 AM CST 5:26 PM CST
Civil Twilight 7:23 AM CST 5:56 PM CST
Nautical Twilight 6:49 AM CST 6:30 PM CST
Astronomical Twilight 6:16 AM CST 7:03 PM CST
Moon 4:32 PM CST (1/14) 6:28 AM CST (1/14)
Length of Visible Light 10h 33m
Length of Day
9h 32m
Waxing Gibbous, 98% of the Moon is Illuminated
Jan 14
Waxing Gibbous
Jan 15
Full
Jan 23
Last Quarter
Jan 30
New
Feb 6
First Quarter

Hourly Weather History & Observations

Time (CST) Temp. Windchill Dew Point Humidity Pressure Visibility Wind Dir Wind Speed Gust Speed Precip Events Conditions
12:15 AM 41.0 °F 33.9 °F 32.0 °F 70% 29.72 in 10.0 mi West 12.7 mph - N/A   Overcast
12:35 AM 41.0 °F 33.9 °F 30.2 °F 65% 29.72 in 10.0 mi West 12.7 mph - N/A   Overcast
12:55 AM 41.0 °F 34.3 °F 30.2 °F 65% 29.72 in 10.0 mi West 11.5 mph - N/A   Mostly Cloudy
1:15 AM 41.0 °F 33.1 °F 32.0 °F 70% 29.74 in 10.0 mi West 15.0 mph - N/A Thunderstorm Thunderstorm
1:35 AM 44.6 °F 36.9 °F 32.0 °F 61% 29.74 in 10.0 mi WNW 18.4 mph 31.1 mph N/A   Mostly Cloudy
1:55 AM 44.6 °F 37.4 °F 32.0 °F 61% 29.75 in 10.0 mi WNW 16.1 mph - N/A   Partly Cloudy
2:15 AM 46.4 °F 36.9 °F 32.0 °F 57% 29.75 in 10.0 mi NW 32.2 mph 41.4 mph N/A   Mostly Cloudy
2:35 AM 46.4 °F 36.7 °F 32.0 °F 57% 29.78 in 10.0 mi NW 33.4 mph 48.3 mph 0.01 in   Overcast
2:55 AM 44.6 °F 34.6 °F 30.2 °F 57% 29.80 in 10.0 mi NW 31.1 mph 41.4 mph 0.01 in   Overcast
3:15 AM 42.8 °F 33.5 °F 30.2 °F 61% 29.82 in 10.0 mi NNW 23.0 mph 41.4 mph N/A   Scattered Clouds
3:35 AM 41.0 °F 30.9 °F 30.2 °F 65% 29.84 in 10.0 mi NW 24.2 mph 32.2 mph N/A   Mostly Cloudy
3:55 AM 39.2 °F 29.0 °F 28.4 °F 65% 29.85 in 10.0 mi NNW 21.9 mph 40.3 mph N/A   Scattered Clouds
4:15 AM 39.2 °F 27.2 °F 28.4 °F 65% 29.88 in 10.0 mi NW 31.1 mph 38.0 mph N/A   Partly Cloudy
4:35 AM 37.4 °F 26.6 °F 26.6 °F 65% 29.89 in 10.0 mi NNW 21.9 mph 40.3 mph N/A   Partly Cloudy
4:55 AM 37.4 °F 26.1 °F 26.6 °F 65% 29.91 in 10.0 mi NNW 24.2 mph 35.7 mph N/A   Partly Cloudy
5:15 AM 37.4 °F 27.8 °F 26.6 °F 65% 29.93 in 10.0 mi NNW 17.3 mph 27.6 mph N/A   Clear
5:35 AM 37.4 °F 27.2 °F 26.6 °F 65% 29.93 in 10.0 mi NW 19.6 mph - N/A   Clear
5:55 AM 35.6 °F 24.2 °F 24.8 °F 65% 29.94 in 10.0 mi NW 21.9 mph 29.9 mph N/A   Scattered Clouds
6:15 AM 35.6 °F 24.2 °F 23.0 °F 60% 29.95 in 10.0 mi NNW 21.9 mph 32.2 mph N/A   Partly Cloudy
6:35 AM 33.8 °F 21.6 °F 21.2 °F 60% 29.97 in 10.0 mi NNW 23.0 mph 31.1 mph N/A   Clear
6:55 AM 32.0 °F 19.8 °F 23.0 °F 69% 29.98 in 10.0 mi NW 20.7 mph 26.5 mph N/A   Clear
7:15 AM 32.0 °F 18.4 °F 19.4 °F 60% 30.00 in 10.0 mi NNW 26.5 mph 39.1 mph N/A   Clear
7:35 AM 32.0 °F 19.2 °F 17.6 °F 55% 30.01 in 10.0 mi NNW 23.0 mph 31.1 mph N/A   Clear
7:55 AM 32.0 °F 20.8 °F 17.6 °F 55% 30.02 in 10.0 mi NNW 17.3 mph 23.0 mph N/A   Clear
8:15 AM 32.0 °F 20.1 °F 19.4 °F 60% 30.04 in 10.0 mi NW 19.6 mph 25.3 mph N/A   Clear
8:35 AM 32.0 °F 18.9 °F 19.4 °F 60% 30.05 in 10.0 mi NW 24.2 mph 27.6 mph N/A   Clear
8:55 AM 32.0 °F 19.5 °F 17.6 °F 55% 30.07 in 10.0 mi NW 21.9 mph 28.8 mph N/A   Clear
9:15 AM 32.0 °F 19.5 °F 17.6 °F 55% 30.08 in 10.0 mi NNW 21.9 mph 36.8 mph N/A   Clear
9:35 AM 32.0 °F 19.2 °F 17.6 °F 55% 30.09 in 10.0 mi NW 23.0 mph 33.4 mph N/A   Clear
9:55 AM 33.8 °F 20.5 °F 14.0 °F 44% 30.10 in 10.0 mi NW 27.6 mph 40.3 mph N/A   Clear
10:15 AM 35.6 °F 22.5 °F 12.2 °F 38% 30.10 in 10.0 mi NW 29.9 mph 38.0 mph N/A   Clear
10:35 AM 35.6 °F 23.4 °F 10.4 °F 35% 30.12 in 10.0 mi NW 25.3 mph 36.8 mph N/A   Clear
10:55 AM 35.6 °F 22.5 °F 8.6 °F 33% 30.12 in 10.0 mi NW 29.9 mph 36.8 mph N/A   Clear
11:15 AM 37.4 °F 24.6 °F 8.6 °F 30% 30.12 in 10.0 mi NW 32.2 mph 41.4 mph N/A   Clear
11:35 AM 37.4 °F 25.2 °F 6.8 °F 28% 30.12 in 10.0 mi NNW 28.8 mph 39.1 mph N/A   Clear
11:55 AM 39.2 °F 26.5 °F 8.6 °F 28% 30.12 in 10.0 mi NW 35.7 mph 42.6 mph N/A   Clear
12:15 PM 39.2 °F 29.0 °F 6.8 °F 26% 30.12 in 10.0 mi NNW 21.9 mph 43.7 mph N/A   Clear
12:35 PM 39.2 °F 27.0 °F 6.8 °F 26% 30.12 in 10.0 mi NW 32.2 mph 46.0 mph N/A   Clear
12:55 PM 39.2 °F 27.2 °F 5.0 °F 24% 30.12 in 10.0 mi NW 31.1 mph 41.4 mph N/A   Clear
1:15 PM 39.2 °F 26.5 °F 5.0 °F 24% 30.12 in 10.0 mi NW 35.7 mph 42.6 mph N/A   Clear
1:35 PM 39.2 °F 27.0 °F 5.0 °F 24% 30.12 in 10.0 mi NW 32.2 mph 40.3 mph N/A   Clear
1:55 PM 39.2 °F 27.8 °F 5.0 °F 24% 30.13 in 10.0 mi NW 27.6 mph 38.0 mph N/A   Clear
2:15 PM 39.2 °F 26.1 °F 3.2 °F 22% 30.13 in 10.0 mi NW 38.0 mph 44.9 mph N/A   Clear
2:35 PM 39.2 °F 28.3 °F 3.2 °F 22% 30.14 in 10.0 mi NNW 25.3 mph 36.8 mph N/A   Clear
2:55 PM 39.2 °F 27.6 °F 5.0 °F 24% 30.14 in 10.0 mi NNW 28.8 mph 38.0 mph N/A   Clear
3:15 PM 37.4 °F 25.2 °F 5.0 °F 26% 30.15 in 10.0 mi NW 28.8 mph 39.1 mph N/A   Clear
3:35 PM 37.4 °F 25.9 °F 5.0 °F 26% 30.16 in 10.0 mi NNW 25.3 mph 38.0 mph N/A   Clear
3:55 PM 37.4 °F 25.4 °F 5.0 °F 26% 30.16 in 10.0 mi NW 27.6 mph 38.0 mph N/A   Clear
4:15 PM 37.4 °F 25.9 °F 6.8 °F 28% 30.16 in 10.0 mi NW 25.3 mph 35.7 mph N/A   Clear
4:35 PM 37.4 °F 25.4 °F 5.0 °F 26% 30.17 in 10.0 mi NW 27.6 mph 33.4 mph N/A   Clear
4:55 PM 35.6 °F 23.2 °F 1.4 °F 24% 30.18 in 10.0 mi NNW 26.5 mph 41.4 mph N/A   Clear
5:15 PM 33.8 °F 22.5 °F 1.4 °F 25% 30.18 in 10.0 mi NNW 19.6 mph 27.6 mph N/A   Clear
5:35 PM 32.0 °F 21.6 °F 5.0 °F 32% 30.19 in 10.0 mi NNW 15.0 mph 23.0 mph N/A   Clear
5:55 PM 32.0 °F 22.1 °F 5.0 °F 32% 30.20 in 10.0 mi NNW 13.8 mph - N/A   Clear
6:15 PM 32.0 °F 19.8 °F 6.8 °F 35% 30.20 in 10.0 mi NW 20.7 mph 25.3 mph N/A   Clear
6:35 PM 32.0 °F 18.9 °F 6.8 °F 35% 30.21 in 10.0 mi NW 24.2 mph 31.1 mph N/A   Clear
6:55 PM 32.0 °F 19.2 °F 8.6 °F 38% 30.21 in 10.0 mi NNW 23.0 mph 32.2 mph N/A   Clear
7:15 PM 30.2 °F 17.8 °F 8.6 °F 40% 30.21 in 10.0 mi NW 19.6 mph 25.3 mph N/A   Clear
7:35 PM 28.4 °F 16.6 °F 10.4 °F 47% 30.22 in 10.0 mi NW 16.1 mph - N/A   Clear
7:55 PM 28.4 °F 16.6 °F 8.6 °F 43% 30.22 in 10.0 mi NW 16.1 mph - N/A   Clear
8:15 PM 28.4 °F 17.0 °F 8.6 °F 43% 30.23 in 10.0 mi NW 15.0 mph - N/A   Clear
8:35 PM 26.6 °F 15.7 °F 8.6 °F 47% 30.23 in 10.0 mi NW 12.7 mph - N/A   Partly Cloudy
8:55 PM 26.6 °F 14.3 °F 8.6 °F 47% 30.23 in 10.0 mi NNW 16.1 mph 23.0 mph N/A   Clear
9:15 PM 26.6 °F 14.7 °F 6.8 °F 43% 30.22 in 10.0 mi NNW 15.0 mph 23.0 mph N/A   Clear
9:35 PM 26.6 °F 15.2 °F 6.8 °F 43% 30.23 in 10.0 mi NNW 13.8 mph - N/A   Clear
9:55 PM 24.8 °F 14.0 °F 5.0 °F 43% 30.24 in 10.0 mi NNW 11.5 mph - N/A   Clear
10:15 PM 23.0 °F 12.4 °F 5.0 °F 46% 30.25 in 10.0 mi NW 10.4 mph - N/A   Clear
10:35 PM 23.0 °F 12.4 °F 6.8 °F 50% 30.24 in 10.0 mi NNW 10.4 mph - N/A   Partly Cloudy
10:55 PM 23.0 °F 11.7 °F 6.8 °F 50% 30.24 in 10.0 mi NNW 11.5 mph - N/A   Clear
11:15 PM 23.0 °F 12.4 °F 6.8 °F 50% 30.24 in 10.0 mi NW 10.4 mph - N/A   Partly Cloudy
11:35 PM 23.0 °F 13.1 °F 6.8 °F 50% 30.24 in 10.0 mi NW 9.2 mph - N/A   Partly Cloudy
11:55 PM 19.4 °F 8.6 °F 6.8 °F 58% 30.24 in 10.0 mi NW 9.2 mph - N/A   Clear